Time;durP1;ratioP1;P1;durP2;ratioP2;P2;SDS_P1;SDS_P2;PMS_P1;PMS_P2;Temp;Humidity;BMP_temperature;BMP_pressure;BME280_temperature;BME280_humidity;BME280_pressure;Samples;Min_cycle;Max_cycle;Signal;HPM_P1;HPM_P2
2021/07/31 00:01:29;;;;;;;15.63;8.35;;;;;;;16.91;64.55;99514.82;1809744;79;27312;-63
2021/07/31 00:03:55;;;;;;;10.48;8.50;;;;;;;16.88;64.72;99497.22;1809685;79;26262;-64
2021/07/31 00:06:22;;;;;;;11.30;8.43;;;;;;;16.87;64.55;99501.68;1780596;79;25631;-63
2021/07/31 00:08:51;;;;;;;12.40;9.18;;;;;;;16.85;64.61;99501.27;1809844;79;27139;-63
2021/07/31 00:11:18;;;;;;;12.65;9.10;;;;;;;16.84;64.74;99500.49;1809949;79;25754;-63
2021/07/31 00:13:45;;;;;;;14.18;8.60;;;;;;;16.81;64.92;99496.52;1809795;78;27385;-63
2021/07/31 00:16:12;;;;;;;11.45;8.88;;;;;;;16.79;64.84;99497.47;1809713;79;25774;-63
2021/07/31 00:18:39;;;;;;;12.93;8.80;;;;;;;16.78;64.92;99506.03;1809658;79;25622;-64
2021/07/31 00:21:05;;;;;;;11.53;9.00;;;;;;;16.72;65.01;99502.84;1809785;78;25644;-63
2021/07/31 00:23:32;;;;;;;14.58;8.78;;;;;;;16.69;64.99;99501.43;1809775;79;25659;-64
2021/07/31 00:25:58;;;;;;;13.30;9.35;;;;;;;16.65;65.43;99508.18;1809727;79;28357;-63
2021/07/31 00:28:25;;;;;;;13.30;9.43;;;;;;;16.58;65.41;99500.70;1809583;78;25807;-63
2021/07/31 00:30:55;;;;;;;16.20;10.58;;;;;;;16.53;65.65;99499.66;1809663;79;25668;-63
2021/07/31 00:33:22;;;;;;;15.65;9.73;;;;;;;16.47;66.04;99498.39;1809632;79;25744;-63
2021/07/31 00:35:48;;;;;;;17.52;9.75;;;;;;;16.44;66.28;99495.03;1809732;79;25712;-63
2021/07/31 00:38:15;;;;;;;12.55;9.15;;;;;;;16.41;66.35;99496.56;1788159;79;27113;-63
2021/07/31 00:40:41;;;;;;;14.47;9.70;;;;;;;16.40;66.40;99498.30;1786808;80;25660;-64
2021/07/31 00:43:10;;;;;;;11.33;8.93;;;;;;;16.37;66.60;99497.66;1786827;80;25656;-64
2021/07/31 00:45:37;;;;;;;18.52;9.78;;;;;;;16.35;66.25;99495.30;1776141;80;25880;-63
2021/07/31 00:48:05;;;;;;;13.45;9.78;;;;;;;16.33;66.13;99496.23;1776159;80;25752;-63
2021/07/31 00:50:34;;;;;;;11.75;9.43;;;;;;;16.29;66.13;99495.97;1765102;80;28202;-63
2021/07/31 00:53:01;;;;;;;12.37;9.63;;;;;;;16.26;66.24;99502.96;1786938;80;26326;-63
2021/07/31 00:55:29;;;;;;;13.00;10.28;;;;;;;16.22;66.55;99502.10;1787124;79;25772;-63
2021/07/31 00:57:58;;;;;;;11.40;10.17;;;;;;;16.18;66.58;99504.78;1787237;80;25791;-63
2021/07/31 01:00:26;;;;;;;14.95;10.32;;;;;;;16.16;66.92;99504.36;1776497;80;25779;-63
2021/07/31 01:02:53;;;;;;;13.58;9.93;;;;;;;16.14;66.70;99503.14;1776320;80;27427;-63
2021/07/31 01:05:20;;;;;;;13.70;9.58;;;;;;;16.11;67.11;99492.39;1787057;80;25640;-64
2021/07/31 01:07:46;;;;;;;13.98;9.53;;;;;;;16.10;67.21;99494.12;1787035;80;25640;-64
2021/07/31 01:10:13;;;;;;;13.70;10.20;;;;;;;16.08;67.50;99498.58;1763066;80;25724;-64
2021/07/31 01:12:43;;;;;;;11.83;9.80;;;;;;;16.08;67.79;99501.89;1776279;80;25745;-64
2021/07/31 01:15:10;;;;;;;;;;;;;;;16.05;67.71;99491.89;1765637;80;27322;-63
2021/07/31 01:17:36;;;;;;;14.95;9.33;;;;;;;16.06;67.91;99499.52;1776212;80;25648;-63
2021/07/31 01:20:04;;;;;;;13.72;10.10;;;;;;;16.03;67.66;99501.02;1776221;79;25673;-63
2021/07/31 01:22:31;;;;;;;12.73;9.78;;;;;;;16.03;67.63;99489.34;1776054;80;27471;-63
2021/07/31 01:24:57;;;;;;;14.80;10.03;;;;;;;16.02;67.89;99483.10;1776372;80;25736;-64
2021/07/31 01:27:23;;;;;;;13.48;10.50;;;;;;;16.00;67.91;99482.66;1787093;80;28069;-63
2021/07/31 01:29:50;;;;;;;14.73;10.10;;;;;;;15.97;67.95;99481.23;1786867;80;27140;-63
2021/07/31 01:32:16;;;;;;;18.12;9.80;;;;;;;15.97;68.46;99479.88;1786969;80;25735;-64
2021/07/31 01:34:43;;;;;;;12.90;10.35;;;;;;;16.00;68.80;99477.78;1786974;79;27614;-63
2021/07/31 01:37:09;;;;;;;15.40;10.23;;;;;;;15.97;68.69;99473.06;1766665;79;25733;-64
2021/07/31 01:39:36;;;;;;;14.13;10.50;;;;;;;15.93;68.49;99470.86;1815550;79;27322;-64
2021/07/31 01:42:07;;;;;;;16.32;10.32;;;;;;;15.92;68.43;99476.90;1815569;78;25679;-64
2021/07/31 01:44:34;;;;;;;13.22;10.48;;;;;;;15.91;68.26;99484.86;1815625;79;25692;-64
2021/07/31 01:47:00;;;;;;;15.38;10.38;;;;;;;15.90;68.37;99480.55;1815601;79;25718;-64
2021/07/31 01:49:26;;;;;;;14.60;10.25;;;;;;;15.90;68.30;99490.09;1815578;79;25779;-64
2021/07/31 01:51:53;;;;;;;16.15;11.25;;;;;;;15.88;68.28;99499.22;1815536;79;27462;-64
2021/07/31 01:54:19;;;;;;;15.88;10.90;;;;;;;15.85;68.20;99493.12;1815583;79;26310;-64
2021/07/31 01:56:47;;;;;;;15.83;11.33;;;;;;;15.82;68.43;99496.02;1787866;79;25746;-64
2021/07/31 01:59:14;;;;;;;14.83;11.15;;;;;;;15.79;68.44;99491.86;1815550;79;25766;-64
2021/07/31 02:01:41;;;;;;;11.73;10.18;;;;;;;15.74;68.47;99497.00;1815612;78;25688;-65
2021/07/31 02:04:08;;;;;;;15.28;10.78;;;;;;;15.72;68.44;99490.36;1815444;79;27471;-64
2021/07/31 02:06:35;;;;;;;13.75;11.40;;;;;;;15.68;68.50;99488.35;1815434;79;25922;-64
2021/07/31 02:09:02;;;;;;;12.68;10.53;;;;;;;15.66;68.47;99494.74;1787988;79;25775;-64
2021/07/31 02:11:29;;;;;;;14.25;11.10;;;;;;;15.64;68.50;99496.24;1815560;79;25781;-63
2021/07/31 02:13:56;;;;;;;13.05;11.48;;;;;;;15.61;68.60;99495.59;1815654;79;25734;-64
2021/07/31 02:16:24;;;;;;;13.80;10.70;;;;;;;15.55;68.56;99499.20;1815582;78;27171;-64
2021/07/31 02:18:52;;;;;;;15.48;11.03;;;;;;;15.50;68.79;99492.69;1815383;78;27121;-63
2021/07/31 02:21:20;;;;;;;16.40;10.48;;;;;;;15.45;68.98;99491.63;1815471;79;25737;-63
2021/07/31 02:23:47;;;;;;;14.03;10.93;;;;;;;15.39;69.10;99499.31;1815514;78;26491;-63
2021/07/31 02:26:13;;;;;;;13.38;9.95;;;;;;;15.35;69.22;99498.44;1815570;79;25676;-63
2021/07/31 02:28:40;;;;;;;13.18;10.78;;;;;;;15.31;69.26;99498.95;1815569;78;27297;-64
2021/07/31 02:31:06;;;;;;;14.25;10.58;;;;;;;15.28;69.33;99503.17;1787987;79;25930;-64
2021/07/31 02:33:33;;;;;;;14.68;11.03;;;;;;;15.27;69.32;99501.62;1815418;78;25722;-63
2021/07/31 02:36:04;;;;;;;11.97;10.70;;;;;;;15.25;69.76;99508.55;1815572;79;25652;-63
2021/07/31 02:38:32;;;;;;;13.38;10.32;;;;;;;15.21;69.58;99511.21;1801747;78;26354;-63
2021/07/31 02:40:58;;;;;;;16.15;11.15;;;;;;;15.18;69.90;99509.20;1786853;80;28128;-63
2021/07/31 02:43:25;;;;;;;18.77;12.23;;;;;;;15.17;69.89;99507.64;1786977;79;27108;-64
2021/07/31 02:45:52;;;;;;;16.27;11.18;;;;;;;15.16;70.00;99506.05;1786956;80;25657;-64
2021/07/31 02:48:18;;;;;;;16.82;11.20;;;;;;;15.13;70.10;99502.69;1786946;80;26273;-64
2021/07/31 02:50:47;;;;;;;15.32;11.10;;;;;;;15.14;70.05;99502.91;1786993;80;25706;-64
2021/07/31 02:53:13;;;;;;;16.02;10.78;;;;;;;15.12;70.23;99502.48;1786952;80;27229;-63
2021/07/31 02:55:40;;;;;;;14.13;11.33;;;;;;;15.11;70.51;99502.26;1786879;80;25687;-64
2021/07/31 02:58:06;;;;;;;15.68;12.25;;;;;;;15.13;70.23;99501.32;1787008;80;25675;-64
2021/07/31 03:00:33;;;;;;;13.58;10.98;;;;;;;15.14;70.61;99500.19;1764724;80;25889;-65
2021/07/31 03:03:00;;;;;;;14.45;11.65;;;;;;;15.15;70.54;99495.52;1764973;80;25694;-63
2021/07/31 03:05:26;;;;;;;16.20;10.90;;;;;;;15.15;70.53;99491.43;1786949;80;27323;-64
2021/07/31 03:07:53;;;;;;;14.87;11.63;;;;;;;15.13;70.72;99483.62;1786849;80;25691;-63
2021/07/31 03:10:20;;;;;;;13.40;11.28;;;;;;;15.12;70.64;99493.73;1787030;80;26318;-63
2021/07/31 03:12:50;;;;;;;13.22;11.20;;;;;;;15.12;70.65;99495.09;1787018;80;25963;-63
2021/07/31 03:15:17;;;;;;;18.57;12.63;;;;;;;15.12;70.69;99501.12;1786913;80;25785;-63
2021/07/31 03:17:44;;;;;;;42.33;38.48;;;;;;;15.11;70.75;99504.40;1787017;79;27957;-63
2021/07/31 03:20:12;;;;;;;16.85;12.35;;;;;;;15.13;71.20;99505.41;1764976;80;25704;-63
2021/07/31 03:22:39;;;;;;;13.38;11.48;;;;;;;15.13;71.26;99502.09;1764767;80;25756;-64
2021/07/31 03:25:08;;;;;;;18.12;12.82;;;;;;;15.14;71.36;99496.09;1786992;80;25699;-64
2021/07/31 03:27:35;;;;;;;20.27;13.77;;;;;;;15.16;71.57;99497.10;1765017;80;25771;-64
2021/07/31 03:30:03;;;;;;;17.02;13.30;;;;;;;15.17;71.79;99491.30;1786905;80;27351;-64
2021/07/31 03:32:31;;;;;;;17.45;13.45;;;;;;;15.19;72.08;99505.34;1786897;80;25810;-65
2021/07/31 03:34:58;;;;;;;17.85;13.50;;;;;;;15.21;72.09;99509.07;1764888;80;25994;-64
2021/07/31 03:37:26;;;;;;;14.60;12.90;;;;;;;15.22;72.02;99514.72;1786878;80;25662;-64
2021/07/31 03:39:53;;;;;;;15.93;13.45;;;;;;;15.23;72.13;99511.64;1808151;79;25738;-64
2021/07/31 03:42:20;;;;;;;20.75;14.30;;;;;;;15.25;72.65;99502.52;1780458;79;27300;-64
2021/07/31 03:44:49;;;;;;;15.80;12.58;;;;;;;15.29;72.88;99508.07;1809602;79;25770;-64
2021/07/31 03:47:16;;;;;;;14.98;13.22;;;;;;;15.34;72.70;99507.78;1809680;79;25624;-63
2021/07/31 03:49:43;;;;;;;16.30;13.30;;;;;;;15.38;72.94;99507.27;1780318;79;25780;-64
2021/07/31 03:52:11;;;;;;;85.70;79.90;;;;;;;15.42;72.85;99504.60;1809774;79;25862;-64
2021/07/31 03:54:37;;;;;;;87.50;81.65;;;;;;;15.42;73.07;99499.93;1780797;79;27732;-64
2021/07/31 03:57:05;;;;;;;87.75;81.60;;;;;;;15.50;73.13;99497.55;1809722;79;25619;-63
2021/07/31 03:59:33;;;;;;;86.22;80.20;;;;;;;15.55;73.18;99492.97;1780406;79;25791;-63
2021/07/31 04:02:02;;;;;;;84.52;78.35;;;;;;;15.61;73.24;99492.31;1809644;78;25981;-63
2021/07/31 04:04:30;;;;;;;85.83;79.82;;;;;;;15.67;73.25;99486.77;1809966;79;25715;-63
2021/07/31 04:06:59;;;;;;;85.47;79.42;;;;;;;15.74;73.21;99492.92;1809698;78;27992;-63
2021/07/31 04:09:26;;;;;;;85.28;79.37;;;;;;;15.81;73.22;99490.92;1809052;78;26258;-63
2021/07/31 04:11:53;;;;;;;87.30;81.08;;;;;;;15.87;73.35;99483.44;1809638;79;25691;-63
2021/07/31 04:14:19;;;;;;;87.25;81.00;;;;;;;15.95;73.36;99479.45;1809676;79;25768;-63
2021/07/31 04:16:46;;;;;;;86.75;80.07;;;;;;;16.02;73.41;99485.02;1809827;79;25714;-64
2021/07/31 04:19:13;;;;;;;84.75;78.90;;;;;;;16.07;73.46;99483.35;1809694;79;28020;-63
2021/07/31 04:21:42;;;;;;;86.80;80.50;;;;;;;16.14;73.57;99478.59;1809587;79;25751;-62
2021/07/31 04:24:08;;;;;;;85.00;79.30;;;;;;;16.21;73.67;99476.77;1809893;79;26292;-62
2021/07/31 04:26:37;;;;;;;86.17;80.57;;;;;;;16.30;73.76;99467.54;1780395;79;26237;-62
2021/07/31 04:29:05;;;;;;;85.47;79.65;;;;;;;16.38;73.84;99480.91;1810100;79;25655;-62
2021/07/31 04:31:35;;;;;;;85.90;79.87;;;;;;;16.47;73.73;99478.50;1809884;79;27877;-63
2021/07/31 04:34:02;;;;;;;86.40;80.00;;;;;;;16.54;73.72;99478.02;1809859;79;26153;-63
2021/07/31 04:36:32;;;;;;;84.70;78.65;;;;;;;16.62;73.76;99482.42;1810006;78;25722;-63
2021/07/31 04:38:59;;;;;;;86.97;80.62;;;;;;;16.73;73.65;99480.41;1809794;79;26452;-63
2021/07/31 04:41:26;;;;;;;85.38;79.27;;;;;;;16.83;73.60;99476.25;1809959;78;25688;-63
2021/07/31 04:43:56;;;;;;;86.72;80.20;;;;;;;16.96;74.04;99464.74;1770488;79;27874;-64
2021/07/31 04:46:22;;;;;;;83.90;78.17;;;;;;;17.12;74.14;99471.35;1809923;79;25643;-63
2021/07/31 04:48:49;;;;;;;83.40;77.50;;;;;;;17.26;73.99;99469.94;1809853;79;25640;-63
2021/07/31 04:51:17;;;;;;;83.55;78.00;;;;;;;17.39;73.67;99476.73;1809903;79;25750;-63
2021/07/31 04:53:44;;;;;;;85.65;79.30;;;;;;;17.50;73.52;99487.20;1809877;79;25734;-63
2021/07/31 04:56:12;;;;;;;83.75;77.85;;;;;;;17.62;73.56;99490.81;1780620;79;26837;-63
2021/07/31 04:58:40;;;;;;;58.92;54.05;;;;;;;17.76;73.44;99490.16;1809787;79;25687;-63
2021/07/31 05:01:12;;;;;;;19.00;12.88;;;;;;;17.90;73.21;99495.80;1809872;78;25762;-64
2021/07/31 05:03:38;;;;;;;15.10;12.40;;;;;;;18.02;72.97;99493.35;1809868;79;25653;-63
2021/07/31 05:06:06;;;;;;;15.83;11.63;;;;;;;18.10;72.71;99492.25;1809976;79;25778;-65
2021/07/31 05:08:33;;;;;;;16.05;12.60;;;;;;;18.16;72.50;99483.09;1809829;78;28032;-64
2021/07/31 05:11:05;;;;;;;19.10;13.88;;;;;;;18.23;72.50;99481.77;1809845;79;25793;-63
2021/07/31 05:13:34;;;;;;;16.67;12.55;;;;;;;18.32;72.27;99482.80;1809897;79;25783;-62
2021/07/31 05:16:04;;;;;;;18.42;12.78;;;;;;;18.40;72.08;99487.17;1780400;79;25707;-64
2021/07/31 05:18:30;;;;;;;15.93;12.25;;;;;;;18.46;72.08;99489.17;1810128;79;25661;-63
2021/07/31 05:20:58;;;;;;;16.93;11.22;;;;;;;18.56;72.18;99486.86;1809894;79;27330;-64
2021/07/31 05:23:26;;;;;;;18.70;11.45;;;;;;;18.65;71.77;99494.17;1809725;79;26343;-64
2021/07/31 05:25:53;;;;;;;13.32;10.35;;;;;;;18.74;71.39;99495.19;1809840;79;25704;-65
2021/07/31 05:28:20;;;;;;;16.35;10.72;;;;;;;18.85;70.94;99494.70;1809843;79;25707;-64
2021/07/31 05:30:47;;;;;;;15.15;11.10;;;;;;;18.95;70.45;99506.86;1800661;78;25724;-64
2021/07/31 05:33:15;;;;;;;15.15;10.20;;;;;;;19.09;70.51;99500.08;1777839;80;29539;-64
2021/07/31 05:35:42;;;;;;;16.07;10.20;;;;;;;19.24;70.00;99500.92;1777744;80;25693;-63
2021/07/31 05:38:09;;;;;;;17.32;9.85;;;;;;;19.39;70.12;99501.16;1777863;80;25784;-64
2021/07/31 05:40:37;;;;;;;17.57;10.10;;;;;;;19.56;70.08;99496.89;1746792;79;25894;-63
2021/07/31 05:43:06;;;;;;;13.83;9.73;;;;;;;19.78;70.36;99496.36;1745469;81;26284;-63
2021/07/31 05:45:34;;;;;;;13.03;9.10;;;;;;;20.00;69.46;99500.47;1756126;81;27228;-63
2021/07/31 05:48:00;;;;;;;14.05;8.90;;;;;;;20.22;69.64;99488.89;1745365;82;25707;-63
2021/07/31 05:50:27;;;;;;;10.48;9.20;;;;;;;20.49;69.35;99480.23;1755808;81;25760;-64
2021/07/31 05:52:54;;;;;;;12.78;9.40;;;;;;;20.74;69.24;99478.82;1745431;82;25896;-64
2021/07/31 05:55:21;;;;;;;14.90;8.85;;;;;;;20.98;68.65;99482.65;1755877;81;25700;-64
2021/07/31 05:57:48;;;;;;;14.73;9.38;;;;;;;21.23;68.38;99482.53;1745398;82;27330;-64
2021/07/31 06:00:16;;;;;;;10.20;8.08;;;;;;;21.49;67.69;99483.77;1755760;81;25771;-64
2021/07/31 06:02:43;;;;;;;14.10;8.75;;;;;;;21.71;66.92;99482.47;1745367;82;25749;-63
2021/07/31 06:05:11;;;;;;;10.75;7.03;;;;;;;21.96;66.80;99478.72;1755804;81;25702;-64
2021/07/31 06:07:39;;;;;;;12.88;6.92;;;;;;;22.19;64.84;99480.29;1745447;82;25706;-63
2021/07/31 06:10:07;;;;;;;11.10;6.15;;;;;;;22.42;64.40;99483.65;1755864;81;27900;-63
2021/07/31 06:12:34;;;;;;;74.50;69.55;;;;;;;22.64;63.34;99476.70;1745308;82;25681;-63
2021/07/31 06:15:02;;;;;;;74.55;70.05;;;;;;;22.80;63.08;99476.15;1755846;81;25704;-64
2021/07/31 06:17:28;;;;;;;32.30;30.02;;;;;;;22.99;62.38;99476.11;1745396;82;25642;-63
2021/07/31 06:19:55;;;;;;;73.12;68.67;;;;;;;23.12;61.63;99479.91;1745385;82;25920;-63
2021/07/31 06:22:22;;;;;;;83.87;78.97;;;;;;;23.24;60.94;99471.69;1755580;81;27999;-63
2021/07/31 06:24:48;;;;;;;72.05;67.60;;;;;;;23.40;60.56;99472.44;1745365;82;25764;-63
2021/07/31 06:27:16;;;;;;;12.30;7.72;;;;;;;23.54;59.71;99481.70;1755775;81;25818;-63
2021/07/31 06:29:43;;;;;;;9.93;6.10;;;;;;;23.69;59.53;99485.20;1745469;82;25656;-63
2021/07/31 06:32:11;;;;;;;11.93;6.15;;;;;;;23.85;58.98;99486.56;1755841;81;25738;-64
2021/07/31 06:34:37;;;;;;;9.03;5.83;;;;;;;24.09;59.82;99483.81;1734416;81;27382;-63
2021/07/31 06:37:05;;;;;;;11.45;5.60;;;;;;;24.38;59.48;99484.09;1745293;82;25833;-64
2021/07/31 06:39:31;;;;;;;9.95;5.75;;;;;;;24.65;58.39;99480.47;1765625;80;25666;-63
2021/07/31 06:41:58;;;;;;;11.18;6.35;;;;;;;24.86;58.22;99471.75;1783238;80;25640;-63
2021/07/31 06:44:24;;;;;;;6.78;5.30;;;;;;;25.09;57.44;99468.09;1783380;80;25634;-64
2021/07/31 06:46:51;;;;;;;9.38;5.33;;;;;;;25.37;56.47;99463.77;1756475;80;27204;-64
2021/07/31 06:49:18;;;;;;;13.38;5.70;;;;;;;25.59;55.49;99466.23;1783205;80;25841;-63
2021/07/31 06:51:47;;;;;;;7.67;5.10;;;;;;;25.76;54.60;99461.48;1756738;80;26028;-64
2021/07/31 06:54:13;;;;;;;8.08;5.17;;;;;;;26.00;53.70;99469.61;1783448;80;33033;-63
2021/07/31 06:56:40;;;;;;;11.93;5.45;;;;;;;26.04;52.53;99466.92;1783329;80;25669;-64
2021/07/31 06:59:06;;;;;;;9.08;4.92;;;;;;;26.13;52.44;99469.69;1783361;80;29489;-63
2021/07/31 07:01:35;;;;;;;9.58;5.10;;;;;;;26.28;51.77;99468.10;1783185;80;26036;-63
2021/07/31 07:04:02;;;;;;;13.58;5.25;;;;;;;26.45;51.90;99465.45;1783385;80;35148;-63
2021/07/31 07:06:29;;;;;;;9.78;4.65;;;;;;;26.62;51.38;99457.89;1783193;80;27746;-63
2021/07/31 07:08:55;;;;;;;7.22;4.62;;;;;;;26.80;51.10;99463.53;1783349;80;25688;-63
2021/07/31 07:11:22;;;;;;;5.40;4.08;;;;;;;27.00;50.55;99466.92;1756667;80;27913;-63
2021/07/31 07:13:49;;;;;;;11.97;4.47;;;;;;;27.24;50.22;99467.20;1783129;80;25685;-63
2021/07/31 07:16:15;;;;;;;8.73;4.92;;;;;;;27.51;49.38;99473.73;1783334;80;25708;-63
2021/07/31 07:18:42;;;;;;;7.55;5.67;;;;;;;27.70;48.39;99478.88;1783239;80;25668;-63
2021/07/31 07:21:10;;;;;;;6.33;4.25;;;;;;;27.94;48.30;99475.95;1783185;80;25708;-63
2021/07/31 07:23:38;;;;;;;5.80;3.87;;;;;;;28.09;44.54;99472.08;1783472;80;27314;-64
2021/07/31 07:26:10;;;;;;;7.05;4.05;;;;;;;28.04;45.28;99477.41;1783231;80;25787;-63
2021/07/31 07:28:39;;;;;;;10.13;4.62;;;;;;;28.04;44.13;99472.62;1783267;80;25807;-64
2021/07/31 07:31:11;;;;;;;6.97;3.80;;;;;;;28.07;44.59;99471.73;1783407;80;30668;-64
2021/07/31 07:33:40;;;;;;;7.53;3.95;;;;;;;28.22;44.68;99473.41;1783278;80;25697;-64
2021/07/31 07:36:18;;;;;;;47.95;45.03;;;;;;;28.27;43.53;99471.45;1783396;80;27304;-64
2021/07/31 07:38:46;;;;;;;4.95;4.20;;;;;;;28.28;43.00;99466.66;1783210;80;26293;-64
2021/07/31 07:41:15;;;;;;;4.60;3.47;;;;;;;28.27;42.45;99465.89;1783245;80;25706;-63
2021/07/31 07:43:42;;;;;;;9.35;6.28;;;;;;;28.28;42.43;99459.11;1783325;80;26269;-62
2021/07/31 07:46:15;;;;;;;7.72;4.40;;;;;;;28.27;42.58;99464.50;1756614;80;25736;-64
2021/07/31 07:48:43;;;;;;;7.15;3.90;;;;;;;28.31;42.18;99456.80;1783235;80;27329;-64
2021/07/31 07:51:11;;;;;;;5.05;4.10;;;;;;;28.42;42.62;99448.72;1783252;80;25652;-63
2021/07/31 07:53:37;;;;;;;66.82;63.20;;;;;;;28.52;42.28;99450.34;1783272;80;25727;-63
2021/07/31 07:56:05;;;;;;;8.15;5.78;;;;;;;28.56;41.57;99449.61;1783188;80;26333;-63
2021/07/31 07:58:32;;;;;;;6.42;4.42;;;;;;;28.63;42.10;99446.56;1756737;80;25755;-63
2021/07/31 08:00:59;;;;;;;5.55;5.00;;;;;;;28.87;41.98;99446.09;1783195;80;27860;-63
2021/07/31 08:03:26;;;;;;;10.43;4.97;;;;;;;28.93;41.22;99449.05;1783142;80;25779;-63
2021/07/31 08:05:53;;;;;;;6.53;4.75;;;;;;;28.84;41.58;99445.59;1783301;80;25736;-63
2021/07/31 08:08:20;;;;;;;12.18;8.73;;;;;;;28.87;42.20;99448.87;1783222;80;26440;-63
2021/07/31 08:10:47;;;;;;;12.28;6.15;;;;;;;28.99;42.58;99450.02;1783246;80;25734;-63
2021/07/31 08:13:14;;;;;;;9.55;5.30;;;;;;;29.17;42.64;99459.88;1783263;80;27411;-63
2021/07/31 08:15:40;;;;;;;6.12;4.12;;;;;;;29.26;41.83;99456.36;1783171;80;25723;-63
2021/07/31 08:18:07;;;;;;;5.75;4.83;;;;;;;29.29;41.63;99446.33;1783196;80;25735;-63
2021/07/31 08:20:34;;;;;;;4.95;4.20;;;;;;;29.44;42.01;99454.27;1783314;80;25648;-62
2021/07/31 08:23:01;;;;;;;7.00;4.30;;;;;;;29.66;41.13;99451.99;1783261;80;25668;-63
2021/07/31 08:25:28;;;;;;;6.17;3.58;;;;;;;29.79;40.72;99449.27;1783251;80;27513;-63
2021/07/31 08:27:55;;;;;;;7.87;4.30;;;;;;;29.92;39.99;99445.59;1783173;80;25804;-63
2021/07/31 08:30:22;;;;;;;6.17;4.22;;;;;;;29.81;39.38;99447.41;1783320;80;25651;-63
2021/07/31 08:32:49;;;;;;;7.25;4.03;;;;;;;29.73;39.69;99450.30;1783217;80;25720;-63
2021/07/31 08:35:16;;;;;;;6.05;4.05;;;;;;;29.72;39.67;99455.11;1783352;80;25703;-64
2021/07/31 08:37:42;;;;;;;4.62;4.22;;;;;;;29.58;39.35;99454.31;1783252;80;27755;-63
2021/07/31 08:40:12;;;;;;;5.70;4.20;;;;;;;29.46;39.35;99447.62;1783049;80;25772;-64
2021/07/31 08:42:41;;;;;;;9.15;8.38;;;;;;;29.30;39.52;99458.38;1756567;80;26262;-64
2021/07/31 08:45:12;;;;;;;6.28;4.78;;;;;;;29.35;40.06;99448.03;1783220;80;25848;-64
2021/07/31 08:47:40;;;;;;;6.40;4.25;;;;;;;29.33;39.48;99441.38;1783348;80;25760;-63
2021/07/31 08:50:11;;;;;;;9.63;4.65;;;;;;;29.26;39.66;99447.23;1756786;80;27317;-64
2021/07/31 08:52:40;;;;;;;5.47;4.12;;;;;;;29.28;39.99;99451.10;1757391;80;25740;-63
2021/07/31 08:55:09;;;;;;;6.83;3.92;;;;;;;29.26;39.82;99448.00;1783291;80;26265;-64
2021/07/31 08:57:36;;;;;;;5.72;3.85;;;;;;;29.24;40.10;99456.05;1783368;80;25802;-64
2021/07/31 09:00:05;;;;;;;7.60;4.45;;;;;;;29.21;39.93;99447.98;1783232;80;25739;-63
2021/07/31 09:02:47;;;;;;;8.20;4.50;;;;;;;29.28;40.52;99448.31;1732101;80;27340;-63
2021/07/31 09:05:34;;;;;;;9.43;4.75;;;;;;;29.33;40.33;99436.58;1783194;80;26276;-63
2021/07/31 09:08:04;;;;;;;4.37;3.95;;;;;;;29.44;40.01;99440.34;1783267;80;25643;-63
2021/07/31 09:10:36;;;;;;;6.03;4.72;;;;;;;29.54;40.48;99435.55;1783140;80;26449;-64
2021/07/31 09:13:09;;;;;;;5.35;4.62;;;;;;;29.64;40.39;99432.19;1782536;80;25971;-63
2021/07/31 09:15:40;;;;;;;4.62;4.08;;;;;;;29.66;40.95;99430.50;1783424;80;27302;-64
2021/07/31 09:18:29;;;;;;;6.20;4.50;;;;;;;29.66;40.38;99426.92;1783154;80;25668;-63
2021/07/31 09:21:12;;;;;;;11.37;4.43;;;;;;;29.50;40.20;99418.99;1783587;80;25660;-64
2021/07/31 09:23:52;;;;;;;5.97;4.55;;;;;;;29.50;40.20;99418.99;1783358;80;25669;-61
2021/07/31 09:26:43;;;;;;;4.80;4.33;;;;;;;29.54;40.07;99416.05;1783374;80;25765;-64
2021/07/31 09:29:11;;;;;;;8.57;4.47;;;;;;;29.64;39.97;99414.07;1782846;80;27886;-63
2021/07/31 09:31:53;;;;;;;6.20;4.75;;;;;;;29.68;39.68;99407.13;1783310;80;25734;-64
2021/07/31 09:34:33;;;;;;;5.95;4.97;;;;;;;29.63;39.56;99410.52;1783364;80;25673;-64
2021/07/31 09:37:25;;;;;;;9.18;4.90;;;;;;;29.53;39.68;99401.36;1783358;80;25631;-64
2021/07/31 09:40:02;;;;;;;18.17;10.35;;;;;;;29.62;39.87;99406.17;1782317;80;25733;-63
2021/07/31 09:42:38;;;;;;;7.72;4.97;;;;;;;29.71;39.63;99407.59;1755798;81;27992;-63
2021/07/31 09:45:13;;;;;;;7.12;5.00;;;;;;;29.75;39.00;99394.91;1755807;81;26233;-63
2021/07/31 09:48:03;;;;;;;6.10;5.15;;;;;;;29.84;39.06;99392.77;1755877;81;25700;-64
2021/07/31 09:50:46;;;;;;;9.43;5.00;;;;;;;29.96;39.19;99396.02;1734388;81;25722;-63
2021/07/31 09:53:24;;;;;;;6.08;4.78;;;;;;;30.05;38.85;99390.44;1755868;80;25732;-63
2021/07/31 09:55:56;;;;;;;11.65;5.15;;;;;;;30.22;39.43;99384.55;1755862;81;28026;-63
2021/07/31 09:58:21;;;;;;;7.92;7.08;;;;;;;30.41;38.97;99384.72;1755494;81;25727;-63
2021/07/31 10:00:53;;;;;;;5.53;4.70;;;;;;;30.57;38.50;99393.36;1755783;81;25712;-64
2021/07/31 10:03:20;;;;;;;5.85;5.08;;;;;;;30.67;38.72;99379.54;1755752;81;25735;-64
2021/07/31 10:05:48;;;;;;;6.33;4.97;;;;;;;30.88;38.96;99388.91;1755877;81;25622;-64
2021/07/31 10:08:15;;;;;;;8.20;4.80;;;;;;;31.14;38.76;99394.11;1755841;81;27887;-64
2021/07/31 10:10:42;;;;;;;8.00;5.33;;;;;;;31.38;38.20;99378.80;1755705;81;25938;-63
2021/07/31 10:13:11;;;;;;;9.93;5.65;;;;;;;31.67;37.65;99376.61;1755850;81;25608;-63
2021/07/31 10:15:39;;;;;;;11.80;8.53;;;;;;;31.94;37.72;99379.22;1755946;81;25748;-63
2021/07/31 10:18:11;;;;;;;8.28;5.83;;;;;;;32.17;36.90;99379.03;1755945;81;25787;-64
2021/07/31 10:20:39;;;;;;;9.83;5.00;;;;;;;32.24;36.70;99372.28;1755778;81;27381;-64
2021/07/31 10:23:07;;;;;;;10.38;7.62;;;;;;;32.20;36.19;99375.91;1755701;81;25645;-64
2021/07/31 10:25:35;;;;;;;63.98;60.03;;;;;;;32.15;36.25;99370.34;1755900;81;34864;-64
2021/07/31 10:28:28;;;;;;;62.27;58.75;;;;;;;32.22;36.64;99374.80;1756044;81;25698;-63
2021/07/31 10:31:30;;;;;;;44.48;41.70;;;;;;;32.31;36.55;99374.69;1755874;81;25685;-64
2021/07/31 10:33:58;;;;;;;6.12;4.90;;;;;;;32.23;36.14;99384.72;1755599;81;27327;-63
2021/07/31 10:36:33;;;;;;;20.02;18.50;;;;;;;32.10;35.54;99374.45;1755651;81;25704;-63
2021/07/31 10:39:27;;;;;;;6.72;5.17;;;;;;;32.10;35.46;99373.81;1755832;81;25645;-63
2021/07/31 10:41:57;;;;;;;9.05;5.20;;;;;;;32.16;36.11;99375.31;1748143;81;26051;-63
2021/07/31 10:44:25;;;;;;;7.00;5.15;;;;;;;32.42;36.46;99381.73;1734616;81;25765;-63
2021/07/31 10:47:24;;;;;;;7.35;5.17;;;;;;;32.66;36.18;99381.05;1745477;82;27019;-64
2021/07/31 10:49:51;;;;;;;5.65;5.15;;;;;;;32.82;36.00;99383.21;1755707;81;25648;-63
2021/07/31 10:53:01;;;;;;;8.08;5.10;;;;;;;32.90;35.80;99383.72;1745350;82;25809;-64
2021/07/31 10:55:45;;;;;;;5.60;4.85;;;;;;;33.04;35.80;99382.14;1712896;83;27759;-63
2021/07/31 10:58:21;;;;;;;14.23;5.20;;;;;;;32.99;35.13;99382.83;1712537;83;25685;-64
2021/07/31 11:00:57;;;;;;;61.37;58.08;;;;;;;33.09;34.93;99385.66;1712953;83;27351;-63
2021/07/31 11:03:32;;;;;;;62.03;58.45;;;;;;;33.25;34.67;99383.61;1712933;83;25700;-64
2021/07/31 11:06:01;;;;;;;8.15;5.83;;;;;;;33.31;33.73;99373.27;1712995;83;25680;-64
2021/07/31 11:08:30;;;;;;;6.47;5.25;;;;;;;33.28;34.07;99377.05;1712910;83;26417;-63
2021/07/31 11:11:00;;;;;;;8.30;4.92;;;;;;;33.30;33.86;99370.31;1713006;83;25814;-63
2021/07/31 11:13:35;;;;;;;6.92;5.17;;;;;;;33.15;33.31;99373.16;1712942;83;27335;-64
2021/07/31 11:16:19;;;;;;;7.53;5.75;;;;;;;32.69;33.51;99368.89;1688732;83;26511;-64
2021/07/31 11:18:47;;;;;;;9.93;5.30;;;;;;;32.28;33.78;99374.89;1708710;83;25787;-62
2021/07/31 11:21:29;;;;;;;6.47;5.28;;;;;;;31.97;34.08;99381.03;1712830;82;25772;-63
2021/07/31 11:24:03;;;;;;;62.05;58.70;;;;;;;31.97;34.08;99381.03;1712974;83;25860;-64
2021/07/31 11:26:52;;;;;;;63.87;60.48;;;;;;;31.71;33.92;99360.45;1712988;83;27331;-64
2021/07/31 11:29:22;;;;;;;14.68;13.53;;;;;;;31.38;33.94;99358.45;1712991;83;26253;-63
2021/07/31 11:32:11;;;;;;;7.55;5.05;;;;;;;31.18;34.13;99357.66;1749175;81;25769;-63
2021/07/31 11:34:44;;;;;;;63.20;59.33;;;;;;;31.06;33.82;99358.80;1745378;82;26251;-63